sensor_id;sensor_type;location;lat;lon;timestamp;P1;durP1;ratioP1;P2;durP2;ratioP2
31482;SDS011;18103;52.246;8.052;2023-03-09T00:00:47;27.10;;;10.17;;
31482;SDS011;18103;52.246;8.052;2023-03-09T00:03:13;26.53;;;10.47;;
31482;SDS011;18103;52.246;8.052;2023-03-09T00:05:41;28.93;;;12.67;;
31482;SDS011;18103;52.246;8.052;2023-03-09T00:08:08;31.80;;;12.52;;
31482;SDS011;18103;52.246;8.052;2023-03-09T00:10:33;21.70;;;9.80;;
31482;SDS011;18103;52.246;8.052;2023-03-09T00:12:59;24.17;;;10.63;;
31482;SDS011;18103;52.246;8.052;2023-03-09T00:15:24;21.57;;;9.60;;
31482;SDS011;18103;52.246;8.052;2023-03-09T00:17:49;23.97;;;11.60;;
31482;SDS011;18103;52.246;8.052;2023-03-09T00:20:15;27.03;;;11.73;;
31482;SDS011;18103;52.246;8.052;2023-03-09T00:22:47;18.00;;;7.43;;
31482;SDS011;18103;52.246;8.052;2023-03-09T00:25:14;18.43;;;9.03;;
31482;SDS011;18103;52.246;8.052;2023-03-09T00:27:42;22.10;;;10.67;;
31482;SDS011;18103;52.246;8.052;2023-03-09T00:30:12;26.33;;;12.50;;
31482;SDS011;18103;52.246;8.052;2023-03-09T00:32:38;24.63;;;12.00;;
31482;SDS011;18103;52.246;8.052;2023-03-09T00:35:03;25.37;;;11.07;;
31482;SDS011;18103;52.246;8.052;2023-03-09T00:37:30;30.23;;;11.87;;
31482;SDS011;18103;52.246;8.052;2023-03-09T00:39:55;27.67;;;11.90;;
31482;SDS011;18103;52.246;8.052;2023-03-09T00:42:20;23.00;;;11.07;;
31482;SDS011;18103;52.246;8.052;2023-03-09T00:44:46;24.90;;;11.77;;
31482;SDS011;18103;52.246;8.052;2023-03-09T00:47:12;23.93;;;10.73;;
31482;SDS011;18103;52.246;8.052;2023-03-09T00:49:37;25.63;;;10.93;;
31482;SDS011;18103;52.246;8.052;2023-03-09T00:52:03;22.13;;;10.47;;
31482;SDS011;18103;52.246;8.052;2023-03-09T00:54:29;25.47;;;11.77;;
31482;SDS011;18103;52.246;8.052;2023-03-09T00:56:54;27.47;;;12.43;;
31482;SDS011;18103;52.246;8.052;2023-03-09T00:59:19;25.13;;;10.80;;
31482;SDS011;18103;52.246;8.052;2023-03-09T01:01:45;26.87;;;10.60;;
31482;SDS011;18103;52.246;8.052;2023-03-09T01:04:10;28.97;;;10.87;;
31482;SDS011;18103;52.246;8.052;2023-03-09T01:06:36;27.03;;;11.60;;
31482;SDS011;18103;52.246;8.052;2023-03-09T01:09:01;21.37;;;10.53;;
31482;SDS011;18103;52.246;8.052;2023-03-09T01:11:27;25.80;;;11.43;;
31482;SDS011;18103;52.246;8.052;2023-03-09T01:13:52;27.57;;;11.63;;
31482;SDS011;18103;52.246;8.052;2023-03-09T01:16:18;24.77;;;10.67;;
31482;SDS011;18103;52.246;8.052;2023-03-09T01:18:44;23.60;;;10.43;;
31482;SDS011;18103;52.246;8.052;2023-03-09T01:21:10;22.93;;;11.33;;
31482;SDS011;18103;52.246;8.052;2023-03-09T01:23:38;24.93;;;12.07;;
31482;SDS011;18103;52.246;8.052;2023-03-09T01:26:05;30.83;;;11.47;;
31482;SDS011;18103;52.246;8.052;2023-03-09T01:28:32;22.73;;;9.77;;
31482;SDS011;18103;52.246;8.052;2023-03-09T01:30:59;27.23;;;12.93;;
31482;SDS011;18103;52.246;8.052;2023-03-09T01:33:24;25.70;;;12.27;;
31482;SDS011;18103;52.246;8.052;2023-03-09T01:35:50;26.80;;;10.20;;
31482;SDS011;18103;52.246;8.052;2023-03-09T01:38:15;24.67;;;10.83;;
31482;SDS011;18103;52.246;8.052;2023-03-09T01:40:43;19.97;;;10.33;;
31482;SDS011;18103;52.246;8.052;2023-03-09T01:51:24;24.33;;;11.63;;
31482;SDS011;18103;52.246;8.052;2023-03-09T01:53:57;23.67;;;11.70;;
31482;SDS011;18103;52.246;8.052;2023-03-09T01:56:24;27.35;;;11.65;;
31482;SDS011;18103;52.246;8.052;2023-03-09T01:58:51;20.67;;;9.47;;
31482;SDS011;18103;52.246;8.052;2023-03-09T02:01:18;20.03;;;9.73;;
31482;SDS011;18103;52.246;8.052;2023-03-09T02:03:45;19.23;;;7.73;;
31482;SDS011;18103;52.246;8.052;2023-03-09T02:06:14;25.33;;;10.47;;
31482;SDS011;18103;52.246;8.052;2023-03-09T02:08:43;20.67;;;9.80;;
31482;SDS011;18103;52.246;8.052;2023-03-09T02:11:13;23.73;;;11.07;;
31482;SDS011;18103;52.246;8.052;2023-03-09T02:13:43;22.77;;;9.90;;
31482;SDS011;18103;52.246;8.052;2023-03-09T02:16:11;22.33;;;10.23;;
31482;SDS011;18103;52.246;8.052;2023-03-09T02:18:37;19.43;;;9.33;;
31482;SDS011;18103;52.246;8.052;2023-03-09T02:27:36;27.20;;;10.37;;
31482;SDS011;18103;52.246;8.052;2023-03-09T02:29:36;24.43;;;10.23;;
31482;SDS011;18103;52.246;8.052;2023-03-09T02:32:02;23.20;;;8.97;;
31482;SDS011;18103;52.246;8.052;2023-03-09T02:34:27;18.30;;;9.47;;
31482;SDS011;18103;52.246;8.052;2023-03-09T02:36:53;17.80;;;9.27;;
31482;SDS011;18103;52.246;8.052;2023-03-09T02:41:48;18.30;;;8.30;;
31482;SDS011;18103;52.246;8.052;2023-03-09T02:44:15;17.23;;;8.43;;
31482;SDS011;18103;52.246;8.052;2023-03-09T02:46:41;20.70;;;9.10;;
31482;SDS011;18103;52.246;8.052;2023-03-09T02:49:07;15.53;;;7.77;;
31482;SDS011;18103;52.246;8.052;2023-03-09T02:51:32;17.70;;;8.50;;
31482;SDS011;18103;52.246;8.052;2023-03-09T02:53:57;17.90;;;9.67;;
31482;SDS011;18103;52.246;8.052;2023-03-09T02:56:23;16.43;;;8.17;;
31482;SDS011;18103;52.246;8.052;2023-03-09T02:58:48;19.23;;;9.33;;
31482;SDS011;18103;52.246;8.052;2023-03-09T03:01:13;20.67;;;10.27;;
31482;SDS011;18103;52.246;8.052;2023-03-09T03:03:39;15.97;;;7.87;;
31482;SDS011;18103;52.246;8.052;2023-03-09T03:06:04;17.33;;;8.00;;
31482;SDS011;18103;52.246;8.052;2023-03-09T03:08:30;17.97;;;8.43;;
31482;SDS011;18103;52.246;8.052;2023-03-09T03:10:57;14.87;;;7.67;;
31482;SDS011;18103;52.246;8.052;2023-03-09T03:13:22;18.73;;;8.30;;
31482;SDS011;18103;52.246;8.052;2023-03-09T03:15:48;16.47;;;7.30;;
31482;SDS011;18103;52.246;8.052;2023-03-09T03:18:13;14.70;;;7.87;;
31482;SDS011;18103;52.246;8.052;2023-03-09T03:20:38;17.17;;;8.20;;
31482;SDS011;18103;52.246;8.052;2023-03-09T03:23:04;12.33;;;6.07;;
31482;SDS011;18103;52.246;8.052;2023-03-09T03:25:29;14.60;;;7.13;;
31482;SDS011;18103;52.246;8.052;2023-03-09T03:27:54;14.63;;;6.80;;
31482;SDS011;18103;52.246;8.052;2023-03-09T03:30:20;15.90;;;7.60;;
31482;SDS011;18103;52.246;8.052;2023-03-09T03:32:45;13.23;;;6.70;;
31482;SDS011;18103;52.246;8.052;2023-03-09T03:35:11;10.60;;;5.97;;
31482;SDS011;18103;52.246;8.052;2023-03-09T03:37:36;12.83;;;6.33;;
31482;SDS011;18103;52.246;8.052;2023-03-09T03:40:02;13.27;;;6.03;;
31482;SDS011;18103;52.246;8.052;2023-03-09T03:42:31;15.90;;;7.43;;
31482;SDS011;18103;52.246;8.052;2023-03-09T03:44:57;12.73;;;7.10;;
31482;SDS011;18103;52.246;8.052;2023-03-09T03:47:22;16.73;;;6.03;;
31482;SDS011;18103;52.246;8.052;2023-03-09T03:49:47;14.37;;;6.83;;
31482;SDS011;18103;52.246;8.052;2023-03-09T03:52:13;10.73;;;5.90;;
31482;SDS011;18103;52.246;8.052;2023-03-09T03:54:38;11.27;;;5.27;;
31482;SDS011;18103;52.246;8.052;2023-03-09T03:57:03;11.37;;;5.67;;
31482;SDS011;18103;52.246;8.052;2023-03-09T03:59:29;14.57;;;6.23;;
31482;SDS011;18103;52.246;8.052;2023-03-09T04:01:55;12.40;;;6.67;;
31482;SDS011;18103;52.246;8.052;2023-03-09T04:04:20;11.53;;;6.13;;
31482;SDS011;18103;52.246;8.052;2023-03-09T04:06:45;12.00;;;6.10;;
31482;SDS011;18103;52.246;8.052;2023-03-09T04:09:12;17.13;;;6.80;;
31482;SDS011;18103;52.246;8.052;2023-03-09T04:11:37;14.53;;;5.50;;
31482;SDS011;18103;52.246;8.052;2023-03-09T04:14:03;11.30;;;4.83;;
31482;SDS011;18103;52.246;8.052;2023-03-09T04:16:28;12.50;;;5.60;;
31482;SDS011;18103;52.246;8.052;2023-03-09T04:18:53;9.67;;;5.20;;
31482;SDS011;18103;52.246;8.052;2023-03-09T04:21:19;12.10;;;6.53;;
31482;SDS011;18103;52.246;8.052;2023-03-09T04:23:46;10.30;;;5.53;;
31482;SDS011;18103;52.246;8.052;2023-03-09T04:26:13;12.87;;;6.13;;
31482;SDS011;18103;52.246;8.052;2023-03-09T04:28:38;12.93;;;5.57;;
31482;SDS011;18103;52.246;8.052;2023-03-09T04:31:04;8.63;;;5.27;;
31482;SDS011;18103;52.246;8.052;2023-03-09T04:33:30;10.77;;;5.57;;
31482;SDS011;18103;52.246;8.052;2023-03-09T04:35:55;11.87;;;5.60;;
31482;SDS011;18103;52.246;8.052;2023-03-09T04:38:20;8.67;;;4.97;;
31482;SDS011;18103;52.246;8.052;2023-03-09T04:40:46;13.73;;;6.10;;
31482;SDS011;18103;52.246;8.052;2023-03-09T04:43:11;10.80;;;5.97;;
31482;SDS011;18103;52.246;8.052;2023-03-09T04:45:37;12.90;;;4.90;;
31482;SDS011;18103;52.246;8.052;2023-03-09T04:48:02;15.03;;;5.60;;
31482;SDS011;18103;52.246;8.052;2023-03-09T04:50:28;11.40;;;5.23;;
31482;SDS011;18103;52.246;8.052;2023-03-09T04:52:53;10.53;;;5.57;;
31482;SDS011;18103;52.246;8.052;2023-03-09T04:55:20;8.77;;;4.73;;
31482;SDS011;18103;52.246;8.052;2023-03-09T04:57:46;9.43;;;5.27;;
31482;SDS011;18103;52.246;8.052;2023-03-09T05:00:11;10.93;;;5.77;;
31482;SDS011;18103;52.246;8.052;2023-03-09T05:02:37;10.50;;;5.07;;
31482;SDS011;18103;52.246;8.052;2023-03-09T05:05:04;11.40;;;5.80;;
31482;SDS011;18103;52.246;8.052;2023-03-09T05:07:30;8.73;;;5.43;;
31482;SDS011;18103;52.246;8.052;2023-03-09T05:09:55;6.53;;;3.60;;
31482;SDS011;18103;52.246;8.052;2023-03-09T05:12:21;8.50;;;5.20;;
31482;SDS011;18103;52.246;8.052;2023-03-09T05:14:46;8.57;;;4.93;;
31482;SDS011;18103;52.246;8.052;2023-03-09T05:17:11;9.10;;;4.20;;
31482;SDS011;18103;52.246;8.052;2023-03-09T05:19:37;9.17;;;4.87;;
31482;SDS011;18103;52.246;8.052;2023-03-09T05:22:03;8.97;;;4.33;;
31482;SDS011;18103;52.246;8.052;2023-03-09T05:24:29;8.07;;;4.20;;
31482;SDS011;18103;52.246;8.052;2023-03-09T05:26:54;11.90;;;5.73;;
31482;SDS011;18103;52.246;8.052;2023-03-09T05:29:20;12.93;;;6.00;;
31482;SDS011;18103;52.246;8.052;2023-03-09T05:31:45;11.97;;;5.30;;
31482;SDS011;18103;52.246;8.052;2023-03-09T05:34:11;13.10;;;5.90;;
31482;SDS011;18103;52.246;8.052;2023-03-09T05:36:36;7.40;;;4.50;;
31482;SDS011;18103;52.246;8.052;2023-03-09T05:39:01;10.10;;;5.10;;
31482;SDS011;18103;52.246;8.052;2023-03-09T05:41:27;8.97;;;4.97;;
31482;SDS011;18103;52.246;8.052;2023-03-09T05:43:52;14.63;;;5.70;;
31482;SDS011;18103;52.246;8.052;2023-03-09T05:46:17;11.90;;;5.93;;
31482;SDS011;18103;52.246;8.052;2023-03-09T05:48:45;8.67;;;4.60;;
31482;SDS011;18103;52.246;8.052;2023-03-09T05:51:11;4.73;;;3.13;;
31482;SDS011;18103;52.246;8.052;2023-03-09T05:53:37;11.23;;;5.57;;
31482;SDS011;18103;52.246;8.052;2023-03-09T05:56:03;12.27;;;5.83;;
31482;SDS011;18103;52.246;8.052;2023-03-09T05:58:30;13.27;;;5.50;;
31482;SDS011;18103;52.246;8.052;2023-03-09T06:00:56;10.57;;;5.57;;
31482;SDS011;18103;52.246;8.052;2023-03-09T06:03:22;12.43;;;6.10;;
31482;SDS011;18103;52.246;8.052;2023-03-09T06:05:49;9.80;;;5.47;;
31482;SDS011;18103;52.246;8.052;2023-03-09T06:08:22;9.73;;;4.87;;
31482;SDS011;18103;52.246;8.052;2023-03-09T06:10:48;12.10;;;5.87;;
31482;SDS011;18103;52.246;8.052;2023-03-09T06:13:13;12.00;;;5.87;;
31482;SDS011;18103;52.246;8.052;2023-03-09T06:15:38;12.43;;;5.63;;
31482;SDS011;18103;52.246;8.052;2023-03-09T06:18:04;12.60;;;6.07;;
31482;SDS011;18103;52.246;8.052;2023-03-09T06:20:29;10.47;;;5.50;;
31482;SDS011;18103;52.246;8.052;2023-03-09T06:22:55;15.00;;;5.83;;
31482;SDS011;18103;52.246;8.052;2023-03-09T06:25:20;14.17;;;6.30;;
31482;SDS011;18103;52.246;8.052;2023-03-09T06:27:45;12.20;;;5.83;;
31482;SDS011;18103;52.246;8.052;2023-03-09T06:30:11;10.37;;;5.73;;
31482;SDS011;18103;52.246;8.052;2023-03-09T06:32:37;11.93;;;5.70;;
31482;SDS011;18103;52.246;8.052;2023-03-09T06:35:02;12.33;;;6.63;;
31482;SDS011;18103;52.246;8.052;2023-03-09T06:37:28;13.43;;;6.23;;
31482;SDS011;18103;52.246;8.052;2023-03-09T06:39:53;12.67;;;6.20;;
31482;SDS011;18103;52.246;8.052;2023-03-09T06:42:18;15.40;;;7.30;;
31482;SDS011;18103;52.246;8.052;2023-03-09T06:44:44;13.90;;;6.33;;
31482;SDS011;18103;52.246;8.052;2023-03-09T06:47:10;11.73;;;5.80;;
31482;SDS011;18103;52.246;8.052;2023-03-09T06:49:36;14.30;;;7.17;;
31482;SDS011;18103;52.246;8.052;2023-03-09T06:52:01;11.23;;;6.03;;
31482;SDS011;18103;52.246;8.052;2023-03-09T06:54:27;12.70;;;6.77;;
31482;SDS011;18103;52.246;8.052;2023-03-09T06:56:52;14.83;;;6.63;;
31482;SDS011;18103;52.246;8.052;2023-03-09T06:59:18;12.20;;;6.70;;
31482;SDS011;18103;52.246;8.052;2023-03-09T07:01:44;13.23;;;7.23;;
31482;SDS011;18103;52.246;8.052;2023-03-09T07:04:09;18.90;;;7.97;;
31482;SDS011;18103;52.246;8.052;2023-03-09T07:06:34;16.60;;;7.13;;
31482;SDS011;18103;52.246;8.052;2023-03-09T07:09:00;16.60;;;7.43;;
31482;SDS011;18103;52.246;8.052;2023-03-09T07:11:25;14.60;;;7.43;;
31482;SDS011;18103;52.246;8.052;2023-03-09T07:13:51;15.90;;;7.43;;
31482;SDS011;18103;52.246;8.052;2023-03-09T07:16:16;15.50;;;7.17;;
31482;SDS011;18103;52.246;8.052;2023-03-09T07:18:41;14.50;;;7.77;;
31482;SDS011;18103;52.246;8.052;2023-03-09T07:21:08;14.63;;;6.87;;
31482;SDS011;18103;52.246;8.052;2023-03-09T07:23:34;15.70;;;8.17;;
31482;SDS011;18103;52.246;8.052;2023-03-09T07:26:03;15.13;;;7.33;;
31482;SDS011;18103;52.246;8.052;2023-03-09T07:28:29;16.17;;;7.00;;
31482;SDS011;18103;52.246;8.052;2023-03-09T07:30:55;12.50;;;6.87;;
31482;SDS011;18103;52.246;8.052;2023-03-09T07:33:21;14.13;;;7.37;;
31482;SDS011;18103;52.246;8.052;2023-03-09T07:35:47;17.20;;;7.17;;
31482;SDS011;18103;52.246;8.052;2023-03-09T07:38:12;19.53;;;8.53;;
31482;SDS011;18103;52.246;8.052;2023-03-09T07:40:38;16.27;;;7.93;;
31482;SDS011;18103;52.246;8.052;2023-03-09T07:43:04;15.10;;;7.03;;
31482;SDS011;18103;52.246;8.052;2023-03-09T07:45:29;17.30;;;7.40;;
31482;SDS011;18103;52.246;8.052;2023-03-09T07:47:55;20.00;;;8.10;;
31482;SDS011;18103;52.246;8.052;2023-03-09T07:50:20;18.57;;;7.90;;
31482;SDS011;18103;52.246;8.052;2023-03-09T07:52:46;17.40;;;8.33;;
31482;SDS011;18103;52.246;8.052;2023-03-09T07:55:13;20.43;;;8.20;;
31482;SDS011;18103;52.246;8.052;2023-03-09T07:57:39;22.17;;;10.20;;
31482;SDS011;18103;52.246;8.052;2023-03-09T08:00:06;18.83;;;8.17;;
31482;SDS011;18103;52.246;8.052;2023-03-09T08:02:38;16.77;;;7.73;;
31482;SDS011;18103;52.246;8.052;2023-03-09T08:05:07;16.10;;;7.57;;
31482;SDS011;18103;52.246;8.052;2023-03-09T08:07:34;18.47;;;9.30;;
31482;SDS011;18103;52.246;8.052;2023-03-09T08:09:59;20.00;;;8.60;;
31482;SDS011;18103;52.246;8.052;2023-03-09T08:12:24;17.23;;;7.67;;
31482;SDS011;18103;52.246;8.052;2023-03-09T08:14:50;16.47;;;8.10;;
31482;SDS011;18103;52.246;8.052;2023-03-09T08:17:15;15.00;;;7.73;;
31482;SDS011;18103;52.246;8.052;2023-03-09T08:19:41;20.20;;;9.93;;
31482;SDS011;18103;52.246;8.052;2023-03-09T08:22:06;22.03;;;9.80;;
31482;SDS011;18103;52.246;8.052;2023-03-09T08:24:31;17.00;;;8.67;;
31482;SDS011;18103;52.246;8.052;2023-03-09T08:26:57;15.30;;;7.73;;
31482;SDS011;18103;52.246;8.052;2023-03-09T08:29:23;17.60;;;8.57;;
31482;SDS011;18103;52.246;8.052;2023-03-09T08:31:48;17.67;;;7.70;;
31482;SDS011;18103;52.246;8.052;2023-03-09T08:34:14;17.93;;;8.57;;
31482;SDS011;18103;52.246;8.052;2023-03-09T08:36:43;15.10;;;7.70;;
31482;SDS011;18103;52.246;8.052;2023-03-09T08:39:08;22.40;;;10.90;;
31482;SDS011;18103;52.246;8.052;2023-03-09T08:41:33;19.97;;;9.47;;
31482;SDS011;18103;52.246;8.052;2023-03-09T08:43:58;26.27;;;11.43;;
31482;SDS011;18103;52.246;8.052;2023-03-09T08:46:24;22.27;;;8.63;;
31482;SDS011;18103;52.246;8.052;2023-03-09T08:48:50;24.77;;;9.80;;
31482;SDS011;18103;52.246;8.052;2023-03-09T08:51:15;21.70;;;9.83;;
31482;SDS011;18103;52.246;8.052;2023-03-09T08:53:40;22.70;;;9.40;;
31482;SDS011;18103;52.246;8.052;2023-03-09T08:56:07;18.60;;;9.10;;
31482;SDS011;18103;52.246;8.052;2023-03-09T08:58:34;25.27;;;9.07;;
31482;SDS011;18103;52.246;8.052;2023-03-09T09:01:00;21.73;;;10.07;;
31482;SDS011;18103;52.246;8.052;2023-03-09T09:03:28;23.63;;;9.33;;
31482;SDS011;18103;52.246;8.052;2023-03-09T09:05:54;27.50;;;10.40;;
31482;SDS011;18103;52.246;8.052;2023-03-09T09:08:19;22.13;;;8.57;;
31482;SDS011;18103;52.246;8.052;2023-03-09T09:10:45;25.77;;;10.53;;
31482;SDS011;18103;52.246;8.052;2023-03-09T09:13:10;19.17;;;9.07;;
31482;SDS011;18103;52.246;8.052;2023-03-09T09:15:36;21.13;;;9.23;;
31482;SDS011;18103;52.246;8.052;2023-03-09T09:18:03;20.40;;;9.97;;
31482;SDS011;18103;52.246;8.052;2023-03-09T09:20:29;23.00;;;8.80;;
31482;SDS011;18103;52.246;8.052;2023-03-09T09:22:54;22.60;;;9.33;;
31482;SDS011;18103;52.246;8.052;2023-03-09T09:25:20;26.57;;;9.33;;
31482;SDS011;18103;52.246;8.052;2023-03-09T09:27:48;19.77;;;10.57;;
31482;SDS011;18103;52.246;8.052;2023-03-09T09:30:14;21.53;;;9.07;;
31482;SDS011;18103;52.246;8.052;2023-03-09T09:32:39;21.53;;;9.53;;
31482;SDS011;18103;52.246;8.052;2023-03-09T09:35:05;22.27;;;9.93;;
31482;SDS011;18103;52.246;8.052;2023-03-09T09:37:31;18.97;;;9.43;;
31482;SDS011;18103;52.246;8.052;2023-03-09T09:39:58;20.53;;;9.27;;
31482;SDS011;18103;52.246;8.052;2023-03-09T09:44:49;25.23;;;10.83;;
31482;SDS011;18103;52.246;8.052;2023-03-09T09:47:18;18.30;;;8.30;;
31482;SDS011;18103;52.246;8.052;2023-03-09T09:49:48;16.27;;;7.60;;
31482;SDS011;18103;52.246;8.052;2023-03-09T09:57:22;22.20;;;8.97;;
31482;SDS011;18103;52.246;8.052;2023-03-09T10:00:11;20.90;;;8.53;;
31482;SDS011;18103;52.246;8.052;2023-03-09T10:02:47;21.67;;;9.33;;
31482;SDS011;18103;52.246;8.052;2023-03-09T10:05:22;27.50;;;9.90;;
31482;SDS011;18103;52.246;8.052;2023-03-09T10:07:55;24.63;;;9.43;;
31482;SDS011;18103;52.246;8.052;2023-03-09T10:10:29;22.93;;;10.33;;
31482;SDS011;18103;52.246;8.052;2023-03-09T10:12:56;17.67;;;8.40;;
31482;SDS011;18103;52.246;8.052;2023-03-09T10:15:28;21.63;;;10.37;;
31482;SDS011;18103;52.246;8.052;2023-03-09T10:18:08;18.87;;;8.83;;
31482;SDS011;18103;52.246;8.052;2023-03-09T10:20:51;19.90;;;9.73;;
31482;SDS011;18103;52.246;8.052;2023-03-09T10:23:29;21.27;;;10.27;;
31482;SDS011;18103;52.246;8.052;2023-03-09T10:28:43;23.63;;;9.77;;
31482;SDS011;18103;52.246;8.052;2023-03-09T10:31:16;25.63;;;10.13;;
31482;SDS011;18103;52.246;8.052;2023-03-09T10:38:53;22.87;;;10.23;;
31482;SDS011;18103;52.246;8.052;2023-03-09T10:41:21;23.80;;;9.10;;
31482;SDS011;18103;52.246;8.052;2023-03-09T10:43:47;21.63;;;9.83;;
31482;SDS011;18103;52.246;8.052;2023-03-09T10:46:14;24.37;;;10.53;;
31482;SDS011;18103;52.246;8.052;2023-03-09T10:48:42;18.53;;;9.67;;
31482;SDS011;18103;52.246;8.052;2023-03-09T10:51:23;21.67;;;9.50;;
31482;SDS011;18103;52.246;8.052;2023-03-09T10:53:50;23.93;;;9.77;;
31482;SDS011;18103;52.246;8.052;2023-03-09T10:56:27;23.80;;;10.57;;
31482;SDS011;18103;52.246;8.052;2023-03-09T11:01:28;21.30;;;9.60;;
31482;SDS011;18103;52.246;8.052;2023-03-09T11:03:54;20.87;;;10.27;;
31482;SDS011;18103;52.246;8.052;2023-03-09T11:06:25;22.40;;;9.23;;
31482;SDS011;18103;52.246;8.052;2023-03-09T11:09:10;19.93;;;9.53;;
31482;SDS011;18103;52.246;8.052;2023-03-09T11:11:39;21.00;;;9.63;;
31482;SDS011;18103;52.246;8.052;2023-03-09T11:16:57;23.00;;;9.53;;
31482;SDS011;18103;52.246;8.052;2023-03-09T11:19:25;25.43;;;10.90;;
31482;SDS011;18103;52.246;8.052;2023-03-09T11:24:23;21.43;;;8.73;;
31482;SDS011;18103;52.246;8.052;2023-03-09T11:27:02;21.40;;;9.73;;
31482;SDS011;18103;52.246;8.052;2023-03-09T11:32:22;20.93;;;9.77;;
31482;SDS011;18103;52.246;8.052;2023-03-09T11:34:47;24.10;;;9.87;;
31482;SDS011;18103;52.246;8.052;2023-03-09T11:37:26;20.57;;;9.73;;
31482;SDS011;18103;52.246;8.052;2023-03-09T11:45:13;23.37;;;10.47;;
31482;SDS011;18103;52.246;8.052;2023-03-09T11:47:48;21.67;;;10.57;;
31482;SDS011;18103;52.246;8.052;2023-03-09T11:52:58;18.40;;;9.63;;
31482;SDS011;18103;52.246;8.052;2023-03-09T11:55:29;24.70;;;11.80;;
31482;SDS011;18103;52.246;8.052;2023-03-09T11:58:03;21.83;;;9.27;;
31482;SDS011;18103;52.246;8.052;2023-03-09T12:00:34;24.27;;;10.87;;
31482;SDS011;18103;52.246;8.052;2023-03-09T12:03:13;23.17;;;9.77;;
31482;SDS011;18103;52.246;8.052;2023-03-09T12:05:42;26.97;;;10.63;;
31482;SDS011;18103;52.246;8.052;2023-03-09T12:08:21;23.17;;;10.63;;
31482;SDS011;18103;52.246;8.052;2023-03-09T12:10:59;22.97;;;10.13;;
31482;SDS011;18103;52.246;8.052;2023-03-09T12:13:59;21.50;;;9.83;;
31482;SDS011;18103;52.246;8.052;2023-03-09T12:16:33;23.93;;;10.90;;
31482;SDS011;18103;52.246;8.052;2023-03-09T12:19:03;24.70;;;10.40;;
31482;SDS011;18103;52.246;8.052;2023-03-09T12:21:37;22.43;;;9.87;;
31482;SDS011;18103;52.246;8.052;2023-03-09T12:26:42;25.97;;;10.50;;
31482;SDS011;18103;52.246;8.052;2023-03-09T12:31:36;24.40;;;9.80;;
31482;SDS011;18103;52.246;8.052;2023-03-09T12:36:31;23.93;;;9.80;;
31482;SDS011;18103;52.246;8.052;2023-03-09T12:41:59;20.90;;;9.33;;
31482;SDS011;18103;52.246;8.052;2023-03-09T12:49:48;24.93;;;10.37;;
31482;SDS011;18103;52.246;8.052;2023-03-09T12:55:02;23.37;;;10.60;;
31482;SDS011;18103;52.246;8.052;2023-03-09T12:57:37;24.40;;;10.87;;
31482;SDS011;18103;52.246;8.052;2023-03-09T13:00:11;22.20;;;10.07;;
31482;SDS011;18103;52.246;8.052;2023-03-09T13:02:49;24.43;;;11.00;;
31482;SDS011;18103;52.246;8.052;2023-03-09T13:07:53;23.57;;;11.13;;
31482;SDS011;18103;52.246;8.052;2023-03-09T13:10:36;25.00;;;11.20;;
31482;SDS011;18103;52.246;8.052;2023-03-09T13:25:11;26.07;;;10.20;;
31482;SDS011;18103;52.246;8.052;2023-03-09T13:29:30;22.57;;;10.13;;
31482;SDS011;18103;52.246;8.052;2023-03-09T13:31:56;20.23;;;9.70;;
31482;SDS011;18103;52.246;8.052;2023-03-09T13:34:24;21.87;;;9.83;;
31482;SDS011;18103;52.246;8.052;2023-03-09T13:36:59;24.13;;;10.93;;
31482;SDS011;18103;52.246;8.052;2023-03-09T13:39:30;20.50;;;8.90;;
31482;SDS011;18103;52.246;8.052;2023-03-09T13:41:56;22.60;;;10.10;;
31482;SDS011;18103;52.246;8.052;2023-03-09T13:44:27;24.53;;;11.03;;
31482;SDS011;18103;52.246;8.052;2023-03-09T13:46:54;24.33;;;10.77;;
31482;SDS011;18103;52.246;8.052;2023-03-09T13:49:23;26.77;;;10.57;;
31482;SDS011;18103;52.246;8.052;2023-03-09T13:51:52;23.10;;;10.60;;
31482;SDS011;18103;52.246;8.052;2023-03-09T13:54:28;22.13;;;10.30;;
31482;SDS011;18103;52.246;8.052;2023-03-09T13:56:58;23.67;;;10.90;;
31482;SDS011;18103;52.246;8.052;2023-03-09T13:59:46;21.67;;;10.50;;
31482;SDS011;18103;52.246;8.052;2023-03-09T14:02:18;22.47;;;10.07;;
31482;SDS011;18103;52.246;8.052;2023-03-09T14:07:20;26.50;;;10.67;;
31482;SDS011;18103;52.246;8.052;2023-03-09T14:09:52;22.10;;;9.90;;
31482;SDS011;18103;52.246;8.052;2023-03-09T14:12:24;18.47;;;9.93;;
31482;SDS011;18103;52.246;8.052;2023-03-09T14:14:54;25.03;;;9.83;;
31482;SDS011;18103;52.246;8.052;2023-03-09T14:17:21;28.93;;;10.20;;
31482;SDS011;18103;52.246;8.052;2023-03-09T14:19:53;25.07;;;11.30;;
31482;SDS011;18103;52.246;8.052;2023-03-09T14:22:21;24.73;;;10.57;;
31482;SDS011;18103;52.246;8.052;2023-03-09T14:24:51;26.83;;;11.50;;
31482;SDS011;18103;52.246;8.052;2023-03-09T14:27:33;27.03;;;12.43;;
31482;SDS011;18103;52.246;8.052;2023-03-09T14:33:22;24.13;;;10.47;;
31482;SDS011;18103;52.246;8.052;2023-03-09T14:41:21;24.60;;;10.03;;
31482;SDS011;18103;52.246;8.052;2023-03-09T14:43:48;24.03;;;9.27;;
31482;SDS011;18103;52.246;8.052;2023-03-09T14:46:15;25.63;;;11.00;;
31482;SDS011;18103;52.246;8.052;2023-03-09T14:48:49;25.37;;;10.40;;
31482;SDS011;18103;52.246;8.052;2023-03-09T14:54:09;24.90;;;10.57;;
31482;SDS011;18103;52.246;8.052;2023-03-09T14:56:39;26.30;;;9.50;;
31482;SDS011;18103;52.246;8.052;2023-03-09T14:59:11;22.83;;;10.97;;
31482;SDS011;18103;52.246;8.052;2023-03-09T15:01:51;26.37;;;11.00;;
31482;SDS011;18103;52.246;8.052;2023-03-09T15:04:20;28.80;;;11.10;;
31482;SDS011;18103;52.246;8.052;2023-03-09T15:06:46;20.93;;;10.20;;
31482;SDS011;18103;52.246;8.052;2023-03-09T15:09:14;19.30;;;9.10;;
31482;SDS011;18103;52.246;8.052;2023-03-09T15:11:39;21.87;;;9.87;;
31482;SDS011;18103;52.246;8.052;2023-03-09T15:14:27;22.20;;;9.13;;
31482;SDS011;18103;52.246;8.052;2023-03-09T15:16:53;30.80;;;11.07;;
31482;SDS011;18103;52.246;8.052;2023-03-09T15:19:19;24.43;;;9.20;;
31482;SDS011;18103;52.246;8.052;2023-03-09T15:21:46;21.50;;;9.73;;
31482;SDS011;18103;52.246;8.052;2023-03-09T15:24:11;22.13;;;9.57;;
31482;SDS011;18103;52.246;8.052;2023-03-09T15:26:38;23.27;;;10.57;;
31482;SDS011;18103;52.246;8.052;2023-03-09T15:29:03;24.60;;;10.23;;
31482;SDS011;18103;52.246;8.052;2023-03-09T15:31:29;24.47;;;9.27;;
31482;SDS011;18103;52.246;8.052;2023-03-09T15:33:58;20.53;;;9.30;;
31482;SDS011;18103;52.246;8.052;2023-03-09T15:36:24;18.47;;;9.57;;
31482;SDS011;18103;52.246;8.052;2023-03-09T15:38:50;20.87;;;9.13;;
31482;SDS011;18103;52.246;8.052;2023-03-09T15:41:15;19.10;;;8.30;;
31482;SDS011;18103;52.246;8.052;2023-03-09T15:43:41;23.60;;;9.90;;
31482;SDS011;18103;52.246;8.052;2023-03-09T15:46:07;22.67;;;9.00;;
31482;SDS011;18103;52.246;8.052;2023-03-09T15:48:33;19.40;;;9.00;;
31482;SDS011;18103;52.246;8.052;2023-03-09T15:50:59;17.37;;;8.73;;
31482;SDS011;18103;52.246;8.052;2023-03-09T15:53:24;20.20;;;7.70;;
31482;SDS011;18103;52.246;8.052;2023-03-09T15:58:29;22.67;;;9.17;;
31482;SDS011;18103;52.246;8.052;2023-03-09T16:00:58;20.53;;;8.90;;
31482;SDS011;18103;52.246;8.052;2023-03-09T16:03:28;17.47;;;8.53;;
31482;SDS011;18103;52.246;8.052;2023-03-09T16:05:55;17.33;;;7.37;;
31482;SDS011;18103;52.246;8.052;2023-03-09T16:08:21;20.30;;;8.73;;
31482;SDS011;18103;52.246;8.052;2023-03-09T16:10:46;24.33;;;8.70;;
31482;SDS011;18103;52.246;8.052;2023-03-09T16:13:11;19.00;;;8.73;;
31482;SDS011;18103;52.246;8.052;2023-03-09T16:15:38;18.10;;;8.33;;